sensor_id;sensor_type;location;lat;lon;timestamp;P1;durP1;ratioP1;P2;durP2;ratioP2
21591;SDS011;10958;50.892;3.992;2022-10-17T00:00:05;8.63;;;6.18;;
21591;SDS011;10958;50.892;3.992;2022-10-17T00:02:32;8.07;;;6.18;;
21591;SDS011;10958;50.892;3.992;2022-10-17T00:05:00;8.67;;;6.47;;
21591;SDS011;10958;50.892;3.992;2022-10-17T00:07:28;6.90;;;6.20;;
21591;SDS011;10958;50.892;3.992;2022-10-17T00:09:57;10.40;;;6.87;;
21591;SDS011;10958;50.892;3.992;2022-10-17T00:12:22;7.37;;;6.10;;
21591;SDS011;10958;50.892;3.992;2022-10-17T00:14:48;7.47;;;6.63;;
21591;SDS011;10958;50.892;3.992;2022-10-17T00:17:16;6.80;;;6.13;;
21591;SDS011;10958;50.892;3.992;2022-10-17T00:19:41;7.78;;;6.32;;
21591;SDS011;10958;50.892;3.992;2022-10-17T00:22:10;7.75;;;6.50;;
21591;SDS011;10958;50.892;3.992;2022-10-17T00:24:36;6.95;;;5.78;;
21591;SDS011;10958;50.892;3.992;2022-10-17T00:27:02;9.27;;;6.82;;
21591;SDS011;10958;50.892;3.992;2022-10-17T00:29:28;10.32;;;6.80;;
21591;SDS011;10958;50.892;3.992;2022-10-17T00:31:54;7.75;;;6.60;;
21591;SDS011;10958;50.892;3.992;2022-10-17T00:34:24;9.65;;;6.47;;
21591;SDS011;10958;50.892;3.992;2022-10-17T00:36:55;10.43;;;6.85;;
21591;SDS011;10958;50.892;3.992;2022-10-17T00:39:23;8.07;;;6.57;;
21591;SDS011;10958;50.892;3.992;2022-10-17T00:41:52;9.57;;;6.40;;
21591;SDS011;10958;50.892;3.992;2022-10-17T00:46:57;10.98;;;6.78;;
21591;SDS011;10958;50.892;3.992;2022-10-17T00:49:27;10.35;;;7.35;;
21591;SDS011;10958;50.892;3.992;2022-10-17T00:51:56;7.80;;;6.55;;
21591;SDS011;10958;50.892;3.992;2022-10-17T00:54:44;10.93;;;6.57;;
21591;SDS011;10958;50.892;3.992;2022-10-17T00:57:14;10.13;;;6.22;;
21591;SDS011;10958;50.892;3.992;2022-10-17T00:59:47;12.23;;;7.25;;
21591;SDS011;10958;50.892;3.992;2022-10-17T01:02:18;10.50;;;6.85;;
21591;SDS011;10958;50.892;3.992;2022-10-17T01:04:46;12.52;;;6.45;;
21591;SDS011;10958;50.892;3.992;2022-10-17T01:07:15;8.73;;;6.80;;
21591;SDS011;10958;50.892;3.992;2022-10-17T01:09:42;9.27;;;6.47;;
21591;SDS011;10958;50.892;3.992;2022-10-17T01:22:48;9.60;;;5.57;;
21591;SDS011;10958;50.892;3.992;2022-10-17T01:28:18;6.65;;;5.85;;
21591;SDS011;10958;50.892;3.992;2022-10-17T01:31:14;8.93;;;5.60;;
21591;SDS011;10958;50.892;3.992;2022-10-17T01:34:06;8.30;;;5.60;;
21591;SDS011;10958;50.892;3.992;2022-10-17T01:36:39;8.93;;;5.28;;
21591;SDS011;10958;50.892;3.992;2022-10-17T01:39:22;8.30;;;5.05;;
21591;SDS011;10958;50.892;3.992;2022-10-17T01:42:00;6.50;;;5.43;;
21591;SDS011;10958;50.892;3.992;2022-10-17T01:44:41;11.55;;;5.80;;
21591;SDS011;10958;50.892;3.992;2022-10-17T01:47:25;8.63;;;5.38;;
21591;SDS011;10958;50.892;3.992;2022-10-17T01:49:55;6.70;;;5.95;;
21591;SDS011;10958;50.892;3.992;2022-10-17T01:52:26;7.85;;;5.38;;
21591;SDS011;10958;50.892;3.992;2022-10-17T01:55:09;8.25;;;5.68;;
21591;SDS011;10958;50.892;3.992;2022-10-17T01:57:43;6.63;;;5.85;;
21591;SDS011;10958;50.892;3.992;2022-10-17T02:00:17;7.15;;;5.63;;
21591;SDS011;10958;50.892;3.992;2022-10-17T02:02:50;8.77;;;6.38;;
21591;SDS011;10958;50.892;3.992;2022-10-17T02:05:20;8.20;;;6.50;;
21591;SDS011;10958;50.892;3.992;2022-10-17T02:08:04;10.32;;;6.07;;
21591;SDS011;10958;50.892;3.992;2022-10-17T02:13:12;10.82;;;6.32;;
21591;SDS011;10958;50.892;3.992;2022-10-17T02:18:51;11.30;;;6.18;;
21591;SDS011;10958;50.892;3.992;2022-10-17T02:21:18;8.55;;;6.35;;
21591;SDS011;10958;50.892;3.992;2022-10-17T02:24:04;8.40;;;5.70;;
21591;SDS011;10958;50.892;3.992;2022-10-17T02:26:54;10.73;;;6.25;;
21591;SDS011;10958;50.892;3.992;2022-10-17T02:29:45;10.57;;;6.60;;
21591;SDS011;10958;50.892;3.992;2022-10-17T02:32:23;9.52;;;6.18;;
21591;SDS011;10958;50.892;3.992;2022-10-17T02:34:58;7.57;;;5.93;;
21591;SDS011;10958;50.892;3.992;2022-10-17T02:39:54;6.72;;;5.43;;
21591;SDS011;10958;50.892;3.992;2022-10-17T02:42:23;9.13;;;5.70;;
21591;SDS011;10958;50.892;3.992;2022-10-17T02:44:50;7.65;;;6.00;;
21591;SDS011;10958;50.892;3.992;2022-10-17T02:47:20;7.13;;;5.55;;
21591;SDS011;10958;50.892;3.992;2022-10-17T02:49:51;12.38;;;6.70;;
21591;SDS011;10958;50.892;3.992;2022-10-17T02:52:32;9.40;;;6.05;;
21591;SDS011;10958;50.892;3.992;2022-10-17T02:55:31;10.98;;;6.25;;
21591;SDS011;10958;50.892;3.992;2022-10-17T02:58:02;11.55;;;6.50;;
21591;SDS011;10958;50.892;3.992;2022-10-17T03:00:42;9.50;;;6.13;;
21591;SDS011;10958;50.892;3.992;2022-10-17T03:03:18;9.35;;;6.05;;
21591;SDS011;10958;50.892;3.992;2022-10-17T03:05:48;8.90;;;6.15;;
21591;SDS011;10958;50.892;3.992;2022-10-17T03:08:17;12.30;;;6.18;;
21591;SDS011;10958;50.892;3.992;2022-10-17T03:10:43;11.02;;;6.43;;
21591;SDS011;10958;50.892;3.992;2022-10-17T03:13:12;10.57;;;5.65;;
21591;SDS011;10958;50.892;3.992;2022-10-17T03:15:38;8.40;;;5.63;;
21591;SDS011;10958;50.892;3.992;2022-10-17T03:18:05;9.80;;;6.53;;
21591;SDS011;10958;50.892;3.992;2022-10-17T03:20:32;7.90;;;6.28;;
21591;SDS011;10958;50.892;3.992;2022-10-17T03:22:58;10.38;;;5.70;;
21591;SDS011;10958;50.892;3.992;2022-10-17T03:25:24;8.15;;;5.90;;
21591;SDS011;10958;50.892;3.992;2022-10-17T03:27:50;10.52;;;6.00;;
21591;SDS011;10958;50.892;3.992;2022-10-17T03:30:18;9.25;;;5.88;;
21591;SDS011;10958;50.892;3.992;2022-10-17T03:32:47;9.73;;;5.50;;
21591;SDS011;10958;50.892;3.992;2022-10-17T03:35:13;9.77;;;5.78;;
21591;SDS011;10958;50.892;3.992;2022-10-17T03:37:42;6.97;;;5.53;;
21591;SDS011;10958;50.892;3.992;2022-10-17T03:40:07;9.80;;;5.40;;
21591;SDS011;10958;50.892;3.992;2022-10-17T03:42:36;6.75;;;5.72;;
21591;SDS011;10958;50.892;3.992;2022-10-17T03:45:02;7.60;;;5.10;;
21591;SDS011;10958;50.892;3.992;2022-10-17T03:47:29;7.68;;;5.78;;
21591;SDS011;10958;50.892;3.992;2022-10-17T03:49:54;7.85;;;5.32;;
21591;SDS011;10958;50.892;3.992;2022-10-17T03:52:20;10.15;;;6.32;;
21591;SDS011;10958;50.892;3.992;2022-10-17T03:54:48;8.07;;;5.68;;
21591;SDS011;10958;50.892;3.992;2022-10-17T03:57:17;8.13;;;5.72;;
21591;SDS011;10958;50.892;3.992;2022-10-17T03:59:43;6.22;;;5.50;;
21591;SDS011;10958;50.892;3.992;2022-10-17T04:02:09;6.85;;;5.28;;
21591;SDS011;10958;50.892;3.992;2022-10-17T04:04:35;8.40;;;5.32;;
21591;SDS011;10958;50.892;3.992;2022-10-17T04:07:01;9.43;;;5.45;;
21591;SDS011;10958;50.892;3.992;2022-10-17T04:09:27;9.00;;;5.53;;
21591;SDS011;10958;50.892;3.992;2022-10-17T04:11:53;9.95;;;5.22;;
21591;SDS011;10958;50.892;3.992;2022-10-17T04:14:18;8.70;;;5.20;;
21591;SDS011;10958;50.892;3.992;2022-10-17T04:16:44;8.60;;;5.57;;
21591;SDS011;10958;50.892;3.992;2022-10-17T04:19:13;9.27;;;5.13;;
21591;SDS011;10958;50.892;3.992;2022-10-17T04:21:41;5.95;;;5.07;;
21591;SDS011;10958;50.892;3.992;2022-10-17T04:24:07;9.35;;;5.25;;
21591;SDS011;10958;50.892;3.992;2022-10-17T04:26:38;8.33;;;4.93;;
21591;SDS011;10958;50.892;3.992;2022-10-17T04:29:05;9.65;;;5.72;;
21591;SDS011;10958;50.892;3.992;2022-10-17T04:31:34;9.52;;;5.15;;
21591;SDS011;10958;50.892;3.992;2022-10-17T04:34:00;7.03;;;5.53;;
21591;SDS011;10958;50.892;3.992;2022-10-17T04:36:26;7.00;;;5.10;;
21591;SDS011;10958;50.892;3.992;2022-10-17T04:38:51;6.30;;;5.00;;
21591;SDS011;10958;50.892;3.992;2022-10-17T04:41:17;17.00;;;5.00;;
21591;SDS011;10958;50.892;3.992;2022-10-17T04:43:44;8.70;;;5.10;;
21591;SDS011;10958;50.892;3.992;2022-10-17T04:46:11;9.68;;;5.10;;
21591;SDS011;10958;50.892;3.992;2022-10-17T04:48:38;7.55;;;5.57;;
21591;SDS011;10958;50.892;3.992;2022-10-17T04:51:06;8.45;;;4.90;;
21591;SDS011;10958;50.892;3.992;2022-10-17T04:53:36;6.63;;;5.25;;
21591;SDS011;10958;50.892;3.992;2022-10-17T04:56:06;6.63;;;5.80;;
21591;SDS011;10958;50.892;3.992;2022-10-17T04:58:37;9.88;;;5.50;;
21591;SDS011;10958;50.892;3.992;2022-10-17T05:01:06;10.07;;;5.80;;
21591;SDS011;10958;50.892;3.992;2022-10-17T05:03:36;6.90;;;4.60;;
21591;SDS011;10958;50.892;3.992;2022-10-17T05:06:03;7.03;;;5.00;;
21591;SDS011;10958;50.892;3.992;2022-10-17T05:08:34;10.98;;;5.43;;
21591;SDS011;10958;50.892;3.992;2022-10-17T05:11:01;5.70;;;5.13;;
21591;SDS011;10958;50.892;3.992;2022-10-17T05:13:30;7.30;;;5.03;;
21591;SDS011;10958;50.892;3.992;2022-10-17T05:15:59;10.73;;;5.70;;
21591;SDS011;10958;50.892;3.992;2022-10-17T05:18:27;6.28;;;4.75;;
21591;SDS011;10958;50.892;3.992;2022-10-17T05:20:54;10.10;;;5.30;;
21591;SDS011;10958;50.892;3.992;2022-10-17T05:23:20;9.52;;;5.63;;
21591;SDS011;10958;50.892;3.992;2022-10-17T05:25:46;6.32;;;5.45;;
21591;SDS011;10958;50.892;3.992;2022-10-17T05:28:11;5.72;;;5.22;;
21591;SDS011;10958;50.892;3.992;2022-10-17T05:30:37;5.80;;;4.93;;
21591;SDS011;10958;50.892;3.992;2022-10-17T05:33:03;5.75;;;5.13;;
21591;SDS011;10958;50.892;3.992;2022-10-17T05:35:29;6.88;;;5.18;;
21591;SDS011;10958;50.892;3.992;2022-10-17T05:37:57;9.50;;;5.40;;
21591;SDS011;10958;50.892;3.992;2022-10-17T05:40:24;10.43;;;5.00;;
21591;SDS011;10958;50.892;3.992;2022-10-17T05:42:49;9.52;;;4.88;;
21591;SDS011;10958;50.892;3.992;2022-10-17T05:45:15;7.85;;;5.10;;
21591;SDS011;10958;50.892;3.992;2022-10-17T05:47:41;9.38;;;4.90;;
21591;SDS011;10958;50.892;3.992;2022-10-17T05:50:09;5.88;;;4.63;;
21591;SDS011;10958;50.892;3.992;2022-10-17T05:52:35;9.80;;;5.10;;
21591;SDS011;10958;50.892;3.992;2022-10-17T05:55:03;5.57;;;4.80;;
21591;SDS011;10958;50.892;3.992;2022-10-17T05:57:32;7.20;;;4.93;;
21591;SDS011;10958;50.892;3.992;2022-10-17T05:59:58;9.75;;;4.63;;
21591;SDS011;10958;50.892;3.992;2022-10-17T06:02:25;8.35;;;4.57;;
21591;SDS011;10958;50.892;3.992;2022-10-17T06:04:50;7.72;;;5.15;;
21591;SDS011;10958;50.892;3.992;2022-10-17T06:07:16;7.10;;;4.80;;
21591;SDS011;10958;50.892;3.992;2022-10-17T06:09:42;7.43;;;5.05;;
21591;SDS011;10958;50.892;3.992;2022-10-17T06:12:08;7.10;;;4.90;;
21591;SDS011;10958;50.892;3.992;2022-10-17T06:14:33;5.72;;;5.03;;
21591;SDS011;10958;50.892;3.992;2022-10-17T06:16:59;9.30;;;4.50;;
21591;SDS011;10958;50.892;3.992;2022-10-17T06:19:27;5.28;;;4.30;;
21591;SDS011;10958;50.892;3.992;2022-10-17T06:21:53;7.53;;;4.67;;
21591;SDS011;10958;50.892;3.992;2022-10-17T06:24:19;7.93;;;4.75;;
21591;SDS011;10958;50.892;3.992;2022-10-17T06:26:45;9.85;;;5.20;;
21591;SDS011;10958;50.892;3.992;2022-10-17T06:29:11;7.65;;;4.82;;
21591;SDS011;10958;50.892;3.992;2022-10-17T06:31:37;12.82;;;5.63;;
21591;SDS011;10958;50.892;3.992;2022-10-17T06:34:03;11.48;;;5.40;;
21591;SDS011;10958;50.892;3.992;2022-10-17T06:36:30;10.50;;;4.95;;
21591;SDS011;10958;50.892;3.992;2022-10-17T06:38:56;9.23;;;5.65;;
21591;SDS011;10958;50.892;3.992;2022-10-17T06:41:22;11.65;;;5.60;;
21591;SDS011;10958;50.892;3.992;2022-10-17T06:43:50;9.90;;;5.40;;
21591;SDS011;10958;50.892;3.992;2022-10-17T06:46:16;11.88;;;5.00;;
21591;SDS011;10958;50.892;3.992;2022-10-17T06:48:43;10.40;;;5.25;;
21591;SDS011;10958;50.892;3.992;2022-10-17T06:51:09;9.50;;;5.18;;
21591;SDS011;10958;50.892;3.992;2022-10-17T06:53:36;39.90;;;15.60;;
21591;SDS011;10958;50.892;3.992;2022-10-17T06:56:04;21.52;;;11.80;;
21591;SDS011;10958;50.892;3.992;2022-10-17T06:58:32;9.75;;;5.75;;
21591;SDS011;10958;50.892;3.992;2022-10-17T07:01:03;9.67;;;6.27;;
21591;SDS011;10958;50.892;3.992;2022-10-17T07:03:31;8.60;;;4.93;;
21591;SDS011;10958;50.892;3.992;2022-10-17T07:05:57;7.15;;;4.57;;
21591;SDS011;10958;50.892;3.992;2022-10-17T07:08:23;8.65;;;5.43;;
21591;SDS011;10958;50.892;3.992;2022-10-17T07:10:50;6.78;;;4.53;;
21591;SDS011;10958;50.892;3.992;2022-10-17T07:13:15;6.45;;;4.65;;
21591;SDS011;10958;50.892;3.992;2022-10-17T07:15:42;13.13;;;5.70;;
21591;SDS011;10958;50.892;3.992;2022-10-17T07:18:10;13.05;;;6.15;;
21591;SDS011;10958;50.892;3.992;2022-10-17T07:20:36;11.32;;;5.95;;
21591;SDS011;10958;50.892;3.992;2022-10-17T07:23:03;8.63;;;5.82;;
21591;SDS011;10958;50.892;3.992;2022-10-17T07:25:31;9.70;;;6.55;;
21591;SDS011;10958;50.892;3.992;2022-10-17T07:27:57;9.23;;;5.78;;
21591;SDS011;10958;50.892;3.992;2022-10-17T07:30:23;7.72;;;4.43;;
21591;SDS011;10958;50.892;3.992;2022-10-17T07:32:51;6.32;;;4.18;;
21591;SDS011;10958;50.892;3.992;2022-10-17T07:35:18;8.70;;;4.60;;
21591;SDS011;10958;50.892;3.992;2022-10-17T07:37:44;13.20;;;7.63;;
21591;SDS011;10958;50.892;3.992;2022-10-17T07:40:10;8.13;;;6.07;;
21591;SDS011;10958;50.892;3.992;2022-10-17T07:42:36;9.35;;;5.45;;
21591;SDS011;10958;50.892;3.992;2022-10-17T07:45:03;13.50;;;7.35;;
21591;SDS011;10958;50.892;3.992;2022-10-17T07:47:32;11.18;;;6.93;;
21591;SDS011;10958;50.892;3.992;2022-10-17T07:49:59;12.00;;;7.20;;
21591;SDS011;10958;50.892;3.992;2022-10-17T07:52:29;8.00;;;4.20;;
21591;SDS011;10958;50.892;3.992;2022-10-17T07:54:55;10.77;;;7.15;;
21591;SDS011;10958;50.892;3.992;2022-10-17T07:57:23;7.47;;;4.97;;
21591;SDS011;10958;50.892;3.992;2022-10-17T07:59:49;9.20;;;5.82;;
21591;SDS011;10958;50.892;3.992;2022-10-17T08:02:24;14.85;;;8.13;;
21591;SDS011;10958;50.892;3.992;2022-10-17T08:04:53;13.38;;;7.70;;
21591;SDS011;10958;50.892;3.992;2022-10-17T08:07:19;15.07;;;10.20;;
21591;SDS011;10958;50.892;3.992;2022-10-17T08:09:46;12.23;;;6.95;;
21591;SDS011;10958;50.892;3.992;2022-10-17T08:12:13;11.57;;;5.72;;
21591;SDS011;10958;50.892;3.992;2022-10-17T08:14:39;6.50;;;4.60;;
21591;SDS011;10958;50.892;3.992;2022-10-17T08:17:06;6.10;;;4.68;;
21591;SDS011;10958;50.892;3.992;2022-10-17T08:19:36;5.80;;;5.10;;
21591;SDS011;10958;50.892;3.992;2022-10-17T08:22:03;7.68;;;3.95;;
21591;SDS011;10958;50.892;3.992;2022-10-17T08:24:33;6.72;;;4.03;;
21591;SDS011;10958;50.892;3.992;2022-10-17T08:26:59;6.93;;;4.18;;
21591;SDS011;10958;50.892;3.992;2022-10-17T08:29:25;6.13;;;3.60;;
21591;SDS011;10958;50.892;3.992;2022-10-17T08:31:50;6.00;;;4.00;;
21591;SDS011;10958;50.892;3.992;2022-10-17T08:34:16;6.40;;;3.90;;
21591;SDS011;10958;50.892;3.992;2022-10-17T08:36:42;6.32;;;4.03;;
21591;SDS011;10958;50.892;3.992;2022-10-17T08:39:08;7.18;;;4.20;;
21591;SDS011;10958;50.892;3.992;2022-10-17T08:47:01;14.20;;;5.85;;
21591;SDS011;10958;50.892;3.992;2022-10-17T08:49:36;11.50;;;6.72;;
21591;SDS011;10958;50.892;3.992;2022-10-17T08:52:14;10.90;;;7.88;;
21591;SDS011;10958;50.892;3.992;2022-10-17T08:55:01;12.23;;;8.13;;
21591;SDS011;10958;50.892;3.992;2022-10-17T08:57:28;11.75;;;5.93;;
21591;SDS011;10958;50.892;3.992;2022-10-17T08:59:54;8.52;;;5.25;;
21591;SDS011;10958;50.892;3.992;2022-10-17T09:18:42;9.80;;;6.70;;
21591;SDS011;10958;50.892;3.992;2022-10-17T09:21:19;6.57;;;4.82;;
21591;SDS011;10958;50.892;3.992;2022-10-17T09:24:10;6.60;;;5.85;;
21591;SDS011;10958;50.892;3.992;2022-10-17T09:26:46;7.55;;;5.55;;
21591;SDS011;10958;50.892;3.992;2022-10-17T09:29:17;8.00;;;5.20;;
21591;SDS011;10958;50.892;3.992;2022-10-17T09:34:41;7.30;;;5.47;;
21591;SDS011;10958;50.892;3.992;2022-10-17T09:37:13;7.10;;;5.20;;
21591;SDS011;10958;50.892;3.992;2022-10-17T09:39:41;6.97;;;5.00;;
21591;SDS011;10958;50.892;3.992;2022-10-17T09:42:09;8.70;;;5.25;;
21591;SDS011;10958;50.892;3.992;2022-10-17T09:44:50;7.50;;;5.07;;
21591;SDS011;10958;50.892;3.992;2022-10-17T09:50:04;6.00;;;5.40;;
21591;SDS011;10958;50.892;3.992;2022-10-17T09:52:41;12.50;;;5.10;;
21591;SDS011;10958;50.892;3.992;2022-10-17T09:55:16;10.15;;;5.57;;
21591;SDS011;10958;50.892;3.992;2022-10-17T09:57:58;8.60;;;6.03;;
21591;SDS011;10958;50.892;3.992;2022-10-17T10:03:38;10.05;;;6.22;;
21591;SDS011;10958;50.892;3.992;2022-10-17T10:06:05;10.03;;;6.53;;
21591;SDS011;10958;50.892;3.992;2022-10-17T10:11:57;10.93;;;6.68;;
21591;SDS011;10958;50.892;3.992;2022-10-17T10:14:29;9.60;;;6.15;;
21591;SDS011;10958;50.892;3.992;2022-10-17T10:16:57;10.07;;;6.07;;
21591;SDS011;10958;50.892;3.992;2022-10-17T10:22:00;11.45;;;5.88;;
21591;SDS011;10958;50.892;3.992;2022-10-17T10:24:29;9.93;;;6.25;;
21591;SDS011;10958;50.892;3.992;2022-10-17T10:26:57;8.35;;;6.30;;
21591;SDS011;10958;50.892;3.992;2022-10-17T10:29:35;8.32;;;6.80;;
21591;SDS011;10958;50.892;3.992;2022-10-17T10:50:22;6.95;;;5.15;;
21591;SDS011;10958;50.892;3.992;2022-10-17T10:53:11;6.85;;;4.97;;
21591;SDS011;10958;50.892;3.992;2022-10-17T10:55:45;9.70;;;4.78;;
21591;SDS011;10958;50.892;3.992;2022-10-17T10:58:25;9.30;;;5.13;;
21591;SDS011;10958;50.892;3.992;2022-10-17T11:01:15;5.40;;;4.70;;
21591;SDS011;10958;50.892;3.992;2022-10-17T11:04:12;4.95;;;4.43;;
21591;SDS011;10958;50.892;3.992;2022-10-17T11:07:24;5.90;;;5.00;;
21591;SDS011;10958;50.892;3.992;2022-10-17T11:12:40;9.52;;;5.35;;
21591;SDS011;10958;50.892;3.992;2022-10-17T11:17:59;9.27;;;6.43;;
21591;SDS011;10958;50.892;3.992;2022-10-17T11:20:52;8.05;;;6.20;;
21591;SDS011;10958;50.892;3.992;2022-10-17T11:25:49;8.50;;;5.70;;
21591;SDS011;10958;50.892;3.992;2022-10-17T11:28:19;9.55;;;5.55;;
21591;SDS011;10958;50.892;3.992;2022-10-17T11:33:29;9.40;;;5.88;;
21591;SDS011;10958;50.892;3.992;2022-10-17T11:36:00;11.52;;;6.25;;
21591;SDS011;10958;50.892;3.992;2022-10-17T11:38:52;7.90;;;5.60;;
21591;SDS011;10958;50.892;3.992;2022-10-17T11:41:21;7.88;;;5.45;;
21591;SDS011;10958;50.892;3.992;2022-10-17T11:43:55;7.10;;;5.50;;
21591;SDS011;10958;50.892;3.992;2022-10-17T11:46:28;7.22;;;5.32;;
21591;SDS011;10958;50.892;3.992;2022-10-17T11:52:12;8.55;;;5.18;;
21591;SDS011;10958;50.892;3.992;2022-10-17T11:54:53;11.05;;;5.18;;
21591;SDS011;10958;50.892;3.992;2022-10-17T12:00:20;8.00;;;4.88;;
21591;SDS011;10958;50.892;3.992;2022-10-17T12:06:19;9.30;;;5.25;;
21591;SDS011;10958;50.892;3.992;2022-10-17T12:14:00;7.00;;;4.75;;
21591;SDS011;10958;50.892;3.992;2022-10-17T12:21:26;7.47;;;4.75;;
21591;SDS011;10958;50.892;3.992;2022-10-17T12:23:53;7.75;;;4.43;;
21591;SDS011;10958;50.892;3.992;2022-10-17T12:26:26;9.35;;;4.38;;
21591;SDS011;10958;50.892;3.992;2022-10-17T12:28:56;7.22;;;4.40;;
21591;SDS011;10958;50.892;3.992;2022-10-17T12:31:24;8.48;;;4.18;;
21591;SDS011;10958;50.892;3.992;2022-10-17T12:33:51;7.70;;;4.05;;
21591;SDS011;10958;50.892;3.992;2022-10-17T12:38:50;5.65;;;3.58;;
21591;SDS011;10958;50.892;3.992;2022-10-17T12:46:43;8.00;;;3.72;;
21591;SDS011;10958;50.892;3.992;2022-10-17T12:49:19;8.05;;;3.38;;
21591;SDS011;10958;50.892;3.992;2022-10-17T12:52:15;4.47;;;3.17;;
21591;SDS011;10958;50.892;3.992;2022-10-17T12:54:45;6.10;;;3.63;;
21591;SDS011;10958;50.892;3.992;2022-10-17T12:57:21;6.75;;;3.22;;
21591;SDS011;10958;50.892;3.992;2022-10-17T12:59:53;7.47;;;3.63;;
21591;SDS011;10958;50.892;3.992;2022-10-17T13:02:21;4.55;;;3.08;;
21591;SDS011;10958;50.892;3.992;2022-10-17T13:04:52;5.43;;;2.92;;
21591;SDS011;10958;50.892;3.992;2022-10-17T13:07:32;4.70;;;3.10;;
21591;SDS011;10958;50.892;3.992;2022-10-17T13:10:00;5.25;;;3.58;;
21591;SDS011;10958;50.892;3.992;2022-10-17T13:12:29;6.30;;;3.30;;
21591;SDS011;10958;50.892;3.992;2022-10-17T13:15:03;6.70;;;3.30;;
21591;SDS011;10958;50.892;3.992;2022-10-17T13:17:31;5.60;;;3.20;;
21591;SDS011;10958;50.892;3.992;2022-10-17T13:19:57;3.85;;;3.13;;
21591;SDS011;10958;50.892;3.992;2022-10-17T13:22:25;6.20;;;3.58;;
21591;SDS011;10958;50.892;3.992;2022-10-17T13:25:03;5.05;;;3.80;;
21591;SDS011;10958;50.892;3.992;2022-10-17T13:27:40;7.57;;;4.10;;
21591;SDS011;10958;50.892;3.992;2022-10-17T13:32:49;6.68;;;4.07;;
21591;SDS011;10958;50.892;3.992;2022-10-17T13:35:16;6.68;;;4.13;;
21591;SDS011;10958;50.892;3.992;2022-10-17T13:37:50;8.25;;;4.57;;
21591;SDS011;10958;50.892;3.992;2022-10-17T13:40:20;6.00;;;4.10;;
21591;SDS011;10958;50.892;3.992;2022-10-17T13:42:54;7.57;;;4.32;;
21591;SDS011;10958;50.892;3.992;2022-10-17T13:45:29;7.82;;;5.00;;
21591;SDS011;10958;50.892;3.992;2022-10-17T13:48:01;6.95;;;4.78;;
21591;SDS011;10958;50.892;3.992;2022-10-17T13:50:36;7.32;;;4.55;;
21591;SDS011;10958;50.892;3.992;2022-10-17T13:53:29;7.50;;;4.05;;
21591;SDS011;10958;50.892;3.992;2022-10-17T13:56:05;6.70;;;3.47;;
21591;SDS011;10958;50.892;3.992;2022-10-17T13:58:44;7.75;;;3.55;;
21591;SDS011;10958;50.892;3.992;2022-10-17T14:01:14;8.15;;;3.80;;
21591;SDS011;10958;50.892;3.992;2022-10-17T14:03:40;7.80;;;4.45;;
21591;SDS011;10958;50.892;3.992;2022-10-17T14:08:36;5.22;;;3.78;;
21591;SDS011;10958;50.892;3.992;2022-10-17T14:11:14;5.47;;;3.95;;
21591;SDS011;10958;50.892;3.992;2022-10-17T14:13:47;13.65;;;4.47;;
21591;SDS011;10958;50.892;3.992;2022-10-17T14:16:16;8.32;;;4.55;;
21591;SDS011;10958;50.892;3.992;2022-10-17T14:18:44;6.85;;;4.15;;
21591;SDS011;10958;50.892;3.992;2022-10-17T14:21:17;6.30;;;4.30;;
21591;SDS011;10958;50.892;3.992;2022-10-17T14:23:49;7.75;;;3.97;;
21591;SDS011;10958;50.892;3.992;2022-10-17T14:26:17;11.77;;;5.65;;
21591;SDS011;10958;50.892;3.992;2022-10-17T14:28:48;15.00;;;5.82;;
21591;SDS011;10958;50.892;3.992;2022-10-17T14:31:32;9.93;;;4.78;;
21591;SDS011;10958;50.892;3.992;2022-10-17T14:34:15;16.45;;;5.60;;
21591;SDS011;10958;50.892;3.992;2022-10-17T14:36:46;7.03;;;4.60;;
21591;SDS011;10958;50.892;3.992;2022-10-17T14:39:19;10.77;;;5.35;;
21591;SDS011;10958;50.892;3.992;2022-10-17T14:41:49;7.50;;;5.00;;
21591;SDS011;10958;50.892;3.992;2022-10-17T14:44:50;7.97;;;5.45;;
21591;SDS011;10958;50.892;3.992;2022-10-17T14:47:15;9.18;;;4.68;;
21591;SDS011;10958;50.892;3.992;2022-10-17T14:49:47;8.50;;;4.15;;
21591;SDS011;10958;50.892;3.992;2022-10-17T14:54:39;5.43;;;3.75;;
21591;SDS011;10958;50.892;3.992;2022-10-17T14:59:58;8.27;;;4.50;;
21591;SDS011;10958;50.892;3.992;2022-10-17T15:02:25;9.35;;;4.72;;
21591;SDS011;10958;50.892;3.992;2022-10-17T15:04:53;8.38;;;4.47;;
21591;SDS011;10958;50.892;3.992;2022-10-17T15:07:24;6.97;;;4.28;;
21591;SDS011;10958;50.892;3.992;2022-10-17T15:09:50;5.63;;;4.32;;
21591;SDS011;10958;50.892;3.992;2022-10-17T15:12:20;6.15;;;3.80;;
21591;SDS011;10958;50.892;3.992;2022-10-17T15:14:48;8.05;;;4.30;;
21591;SDS011;10958;50.892;3.992;2022-10-17T15:17:16;5.10;;;3.85;;
21591;SDS011;10958;50.892;3.992;2022-10-17T15:19:47;7.45;;;4.38;;
21591;SDS011;10958;50.892;3.992;2022-10-17T15:22:14;11.30;;;7.22;;
21591;SDS011;10958;50.892;3.992;2022-10-17T15:24:40;7.85;;;6.50;;
21591;SDS011;10958;50.892;3.992;2022-10-17T15:27:14;7.13;;;5.47;;
21591;SDS011;10958;50.892;3.992;2022-10-17T15:29:41;8.60;;;4.88;;
21591;SDS011;10958;50.892;3.992;2022-10-17T15:32:08;6.40;;;4.35;;
21591;SDS011;10958;50.892;3.992;2022-10-17T15:34:33;6.72;;;4.93;;
21591;SDS011;10958;50.892;3.992;2022-10-17T15:36:59;9.95;;;4.50;;
21591;SDS011;10958;50.892;3.992;2022-10-17T15:39:25;6.63;;;5.43;;
21591;SDS011;10958;50.892;3.992;2022-10-17T15:41:51;8.15;;;5.13;;
21591;SDS011;10958;50.892;3.992;2022-10-17T15:44:17;7.15;;;4.88;;
21591;SDS011;10958;50.892;3.992;2022-10-17T15:46:42;7.00;;;4.00;;
21591;SDS011;10958;50.892;3.992;2022-10-17T15:49:10;8.48;;;4.53;;
21591;SDS011;10958;50.892;3.992;2022-10-17T15:51:40;7.78;;;4.72;;
21591;SDS011;10958;50.892;3.992;2022-10-17T15:54:26;10.43;;;6.38;;
21591;SDS011;10958;50.892;3.992;2022-10-17T15:57:04;9.57;;;5.10;;
21591;SDS011;10958;50.892;3.992;2022-10-17T15:59:41;8.43;;;4.95;;
21591;SDS011;10958;50.892;3.992;2022-10-17T16:02:11;9.65;;;4.60;;
21591;SDS011;10958;50.892;3.992;2022-10-17T16:04:38;10.30;;;6.07;;
21591;SDS011;10958;50.892;3.992;2022-10-17T16:10:07;9.88;;;6.95;;
21591;SDS011;10958;50.892;3.992;2022-10-17T16:13:01;10.50;;;5.40;;
21591;SDS011;10958;50.892;3.992;2022-10-17T16:15:27;7.85;;;5.05;;
21591;SDS011;10958;50.892;3.992;2022-10-17T16:20:25;5.75;;;4.90;;
21591;SDS011;10958;50.892;3.992;2022-10-17T16:22:51;6.28;;;5.18;;
21591;SDS011;10958;50.892;3.992;2022-10-17T16:25:24;11.70;;;5.00;;
21591;SDS011;10958;50.892;3.992;2022-10-17T16:27:55;7.38;;;4.78;;
21591;SDS011;10958;50.892;3.992;2022-10-17T16:30:29;7.55;;;4.63;;
21591;SDS011;10958;50.892;3.992;2022-10-17T16:32:59;6.85;;;4.07;;
21591;SDS011;10958;50.892;3.992;2022-10-17T16:35:28;5.55;;;4.15;;
21591;SDS011;10958;50.892;3.992;2022-10-17T16:38:09;6.13;;;4.00;;
21591;SDS011;10958;50.892;3.992;2022-10-17T16:40:38;10.65;;;5.47;;
21591;SDS011;10958;50.892;3.992;2022-10-17T16:43:16;5.95;;;4.40;;
21591;SDS011;10958;50.892;3.992;2022-10-17T16:46:03;19.70;;;15.68;;
21591;SDS011;10958;50.892;3.992;2022-10-17T16:48:38;46.53;;;30.80;;
21591;SDS011;10958;50.892;3.992;2022-10-17T16:54:14;35.88;;;22.85;;
21591;SDS011;10958;50.892;3.992;2022-10-17T16:56:44;38.70;;;28.33;;
21591;SDS011;10958;50.892;3.992;2022-10-17T16:59:20;21.98;;;16.17;;
21591;SDS011;10958;50.892;3.992;2022-10-17T17:01:46;21.00;;;15.23;;
21591;SDS011;10958;50.892;3.992;2022-10-17T17:04:15;16.98;;;12.82;;
21591;SDS011;10958;50.892;3.992;2022-10-17T17:07:23;14.05;;;10.02;;
21591;SDS011;10958;50.892;3.992;2022-10-17T17:09:49;12.80;;;8.60;;
21591;SDS011;10958;50.892;3.992;2022-10-17T17:12:32;14.45;;;12.15;;
21591;SDS011;10958;50.892;3.992;2022-10-17T17:15:04;15.60;;;13.90;;
21591;SDS011;10958;50.892;3.992;2022-10-17T17:17:53;9.55;;;7.50;;
21591;SDS011;10958;50.892;3.992;2022-10-17T17:20:20;8.23;;;5.38;;